createdAt,value
2023-01-19T00:00:58.913Z,-0.13
2023-01-19T00:03:26.152Z,-0.14
2023-01-19T00:06:14.355Z,-0.04
2023-01-19T00:08:41.217Z,-0.09
2023-01-19T00:11:14.390Z,-0.08
2023-01-19T00:13:42.630Z,-0.04
2023-01-19T00:16:09.347Z,0.02
2023-01-19T00:18:36.083Z,0.06
2023-01-19T00:21:02.857Z,0.07
2023-01-19T00:23:29.522Z,-0.03
2023-01-19T00:25:56.251Z,-0.04
2023-01-19T00:28:22.988Z,-0.10
2023-01-19T00:30:50.474Z,-0.10
2023-01-19T00:33:17.194Z,-0.13
2023-01-19T00:35:44.197Z,-0.14
2023-01-19T00:38:12.110Z,-0.21
2023-01-19T00:40:38.872Z,-0.17
2023-01-19T00:43:05.534Z,-0.21
2023-01-19T00:45:33.976Z,-0.23
2023-01-19T00:48:01.085Z,-0.24
2023-01-19T00:50:30.138Z,-0.28
2023-01-19T00:53:01.079Z,-0.25
2023-01-19T00:55:30.044Z,-0.33
2023-01-19T00:57:57.666Z,-0.29
2023-01-19T01:00:25.808Z,-0.27
2023-01-19T01:02:54.208Z,-0.34
2023-01-19T01:05:21.339Z,-0.35
2023-01-19T01:07:49.547Z,-0.44
2023-01-19T01:10:29.179Z,-0.41
2023-01-19T01:12:58.779Z,-0.36
2023-01-19T01:15:28.052Z,-0.36
2023-01-19T01:17:56.019Z,-0.42
2023-01-19T01:20:27.887Z,-0.49
2023-01-19T01:22:56.597Z,-0.45
2023-01-19T01:25:26.074Z,-0.38
2023-01-19T01:27:53.248Z,-0.41
2023-01-19T01:30:21.233Z,-0.31
2023-01-19T01:32:47.983Z,-0.26
2023-01-19T01:35:16.107Z,-0.19
2023-01-19T01:37:42.999Z,-0.11
2023-01-19T01:40:14.354Z,-0.07
2023-01-19T01:42:44.364Z,-0.08
2023-01-19T01:45:40.750Z,0.01
2023-01-19T01:48:16.796Z,-0.03
2023-01-19T01:51:25.549Z,-0.05
2023-01-19T01:54:10.298Z,-0.08
2023-01-19T01:56:45.413Z,-0.04
2023-01-19T01:59:26.215Z,-0.01
2023-01-19T02:02:15.680Z,-0.07
2023-01-19T02:05:27.871Z,-0.05
2023-01-19T02:08:47.283Z,-0.08
2023-01-19T02:11:32.425Z,-0.11
2023-01-19T02:13:59.148Z,-0.20
2023-01-19T02:16:25.868Z,-0.17
2023-01-19T02:18:52.540Z,-0.22
2023-01-19T02:21:26.862Z,-0.26
2023-01-19T02:23:59.129Z,-0.21
2023-01-19T02:26:52.505Z,-0.25
2023-01-19T02:29:23.325Z,-0.26
2023-01-19T02:31:50.197Z,-0.25
2023-01-19T02:34:19.935Z,-0.24
2023-01-19T02:36:53.608Z,-0.30
2023-01-19T02:39:27.484Z,-0.27
2023-01-19T02:42:03.118Z,-0.26
2023-01-19T02:44:31.001Z,-0.29
2023-01-19T02:46:58.038Z,-0.33
2023-01-19T02:49:28.985Z,-0.32
2023-01-19T02:51:57.237Z,-0.28
2023-01-19T02:54:46.384Z,-0.25
2023-01-19T02:57:46.769Z,-0.16
2023-01-19T03:00:57.891Z,-0.19
2023-01-19T03:03:55.060Z,-0.24
2023-01-19T03:06:33.721Z,-0.27
2023-01-19T03:09:29.111Z,-0.22
2023-01-19T03:12:10.190Z,-0.17
2023-01-19T03:14:42.945Z,-0.18
2023-01-19T03:17:12.684Z,-0.19
2023-01-19T03:19:47.622Z,-0.14
2023-01-19T03:22:22.084Z,-0.06
2023-01-19T03:24:51.248Z,-0.08
2023-01-19T03:27:28.092Z,-0.10
2023-01-19T03:30:09.072Z,-0.04
2023-01-19T03:33:09.350Z,0.02
2023-01-19T03:35:43.349Z,0.07
2023-01-19T03:38:16.462Z,0.06
2023-01-19T03:40:45.146Z,0.12
2023-01-19T03:43:13.282Z,0.14
2023-01-19T03:45:40.665Z,0.22
2023-01-19T03:48:07.900Z,0.22
2023-01-19T03:50:34.943Z,0.26
2023-01-19T03:53:14.942Z,0.26
2023-01-19T03:55:45.832Z,0.28
2023-01-19T03:58:12.918Z,0.27
2023-01-19T04:00:40.041Z,0.21
2023-01-19T04:03:15.765Z,0.13
2023-01-19T04:05:43.107Z,0.06
2023-01-19T04:08:09.988Z,0.03
2023-01-19T04:10:37.130Z,0.05
2023-01-19T04:13:05.432Z,0.05
2023-01-19T04:15:32.531Z,0.05
2023-01-19T04:18:01.037Z,0.05
2023-01-19T04:20:28.594Z,0.03
2023-01-19T04:22:59.611Z,0.04
2023-01-19T04:25:27.715Z,0.04
2023-01-19T04:27:55.211Z,-0.02
2023-01-19T04:30:22.613Z,-0.02
2023-01-19T04:32:53.930Z,-0.01
2023-01-19T04:35:22.216Z,-0.02
2023-01-19T04:37:48.975Z,0.02
2023-01-19T04:40:15.892Z,0.03
2023-01-19T04:42:46.090Z,0.06
2023-01-19T04:45:13.931Z,0.08
2023-01-19T04:47:42.641Z,0.06
2023-01-19T04:50:11.400Z,0.05
2023-01-19T04:52:38.485Z,0.04
2023-01-19T04:55:07.425Z,0.01
2023-01-19T04:57:34.531Z,-0.04
2023-01-19T05:00:01.178Z,-0.12
2023-01-19T05:02:27.951Z,-0.20
2023-01-19T05:04:54.676Z,-0.27
2023-01-19T05:07:21.506Z,-0.27
2023-01-19T05:09:48.244Z,-0.30
2023-01-19T05:12:15.007Z,-0.30
2023-01-19T05:14:41.723Z,-0.38
2023-01-19T05:17:08.383Z,-0.44
2023-01-19T05:19:35.540Z,-0.46
2023-01-19T05:22:04.040Z,-0.52
2023-01-19T05:24:30.878Z,-0.59
2023-01-19T05:26:59.195Z,-0.64
2023-01-19T05:29:25.895Z,-0.67
2023-01-19T05:31:52.553Z,-0.67
2023-01-19T05:34:19.393Z,-0.70
2023-01-19T05:36:46.170Z,-0.72
2023-01-19T05:39:16.122Z,-0.70
2023-01-19T05:41:44.651Z,-0.71
2023-01-19T05:44:12.561Z,-0.72
2023-01-19T05:46:40.318Z,-0.72
2023-01-19T05:49:07.651Z,-0.66
2023-01-19T05:51:38.126Z,-0.66
2023-01-19T05:54:06.163Z,-0.60
2023-01-19T05:56:34.455Z,-0.67
2023-01-19T05:59:01.457Z,-0.68
2023-01-19T06:01:28.437Z,-0.64
2023-01-19T06:03:55.373Z,-0.65
2023-01-19T06:06:22.132Z,-0.59
2023-01-19T06:08:48.884Z,-0.57
2023-01-19T06:11:16.834Z,-0.57
2023-01-19T06:13:43.552Z,-0.57
2023-01-19T06:16:11.642Z,-0.59
2023-01-19T06:18:38.600Z,-0.61
2023-01-19T06:21:10.443Z,-0.65
2023-01-19T06:23:37.266Z,-0.62
2023-01-19T06:26:04.475Z,-0.64
2023-01-19T06:28:31.578Z,-0.62
2023-01-19T06:30:58.378Z,-0.63
2023-01-19T06:33:27.515Z,-0.65
2023-01-19T06:35:54.869Z,-0.59
2023-01-19T06:38:22.270Z,-0.53
2023-01-19T06:40:58.771Z,-0.55
2023-01-19T06:43:26.834Z,-0.51
2023-01-19T06:45:54.672Z,-0.46
2023-01-19T06:48:21.626Z,-0.46
2023-01-19T06:50:48.986Z,-0.43
2023-01-19T06:53:17.211Z,-0.44
2023-01-19T06:55:44.378Z,-0.43
2023-01-19T06:58:11.986Z,-0.41
2023-01-19T07:00:39.039Z,-0.43
2023-01-19T07:03:07.619Z,-0.43
2023-01-19T07:05:35.829Z,-0.44
2023-01-19T07:08:03.853Z,-0.48
2023-01-19T07:11:22.249Z,-0.49
2023-01-19T07:13:17.828Z,-0.48
2023-01-19T07:15:45.257Z,-0.48
2023-01-19T07:18:12.048Z,-0.48
2023-01-19T07:20:41.990Z,-0.45
2023-01-19T07:23:10.030Z,-0.46
2023-01-19T07:25:36.829Z,-0.44
2023-01-19T07:28:03.985Z,-0.42
2023-01-19T07:30:30.778Z,-0.37
2023-01-19T07:32:58.667Z,-0.33
2023-01-19T07:35:26.197Z,-0.33
2023-01-19T07:37:52.970Z,-0.29
2023-01-19T07:40:19.758Z,-0.28
2023-01-19T07:42:50.665Z,-0.28
2023-01-19T07:45:20.331Z,-0.25
2023-01-19T07:47:48.926Z,-0.21
2023-01-19T07:50:17.805Z,-0.19
2023-01-19T07:52:44.817Z,-0.19
2023-01-19T07:55:11.480Z,-0.16
2023-01-19T07:57:38.118Z,-0.18
2023-01-19T08:00:05.800Z,-0.17
2023-01-19T08:02:39.408Z,-0.13
2023-01-19T08:05:06.496Z,-0.13
2023-01-19T08:07:34.429Z,-0.15
2023-01-19T08:10:01.135Z,-0.11
2023-01-19T08:12:27.926Z,-0.10
2023-01-19T08:14:54.645Z,-0.29
2023-01-19T08:17:21.417Z,-0.26
2023-01-19T08:19:48.148Z,-0.25
2023-01-19T08:22:14.842Z,-0.28
2023-01-19T08:24:41.659Z,-0.23
2023-01-19T08:27:09.930Z,-0.26
2023-01-19T08:29:37.071Z,-0.23
2023-01-19T08:32:04.779Z,-0.20
2023-01-19T08:34:31.925Z,-0.21
2023-01-19T08:36:59.422Z,-0.17
2023-01-19T08:39:27.350Z,-0.11
2023-01-19T08:41:54.528Z,-0.08
2023-01-19T08:44:21.439Z,0.00
2023-01-19T08:46:48.523Z,0.04
2023-01-19T08:49:15.765Z,0.01
2023-01-19T08:51:42.451Z,0.06
2023-01-19T08:54:09.899Z,0.08
2023-01-19T08:56:36.826Z,0.11
2023-01-19T08:59:09.753Z,0.13
2023-01-19T09:01:37.572Z,0.14
2023-01-19T09:04:04.919Z,0.19
2023-01-19T09:06:32.648Z,0.16
2023-01-19T09:08:59.860Z,0.17
2023-01-19T09:11:27.557Z,0.21
2023-01-19T09:13:54.434Z,0.32
2023-01-19T09:16:21.423Z,0.26
2023-01-19T09:18:48.117Z,0.32
2023-01-19T09:21:15.736Z,0.36
2023-01-19T09:23:42.550Z,0.33
2023-01-19T09:26:10.171Z,0.34
2023-01-19T09:28:38.266Z,0.36
2023-01-19T09:31:08.883Z,0.40
2023-01-19T09:33:35.909Z,0.44
2023-01-19T09:36:02.642Z,0.46
2023-01-19T09:38:32.622Z,0.45
2023-01-19T09:41:00.731Z,0.44
2023-01-19T09:43:42.208Z,0.42
2023-01-19T09:46:26.560Z,0.51
2023-01-19T09:57:56.676Z,0.51
2023-01-19T10:00:24.774Z,0.49
2023-01-19T10:03:16.718Z,0.42
2023-01-19T10:05:59.738Z,0.46
2023-01-19T10:08:47.548Z,0.37
2023-01-19T10:11:54.283Z,0.45
2023-01-19T10:14:43.780Z,0.47
2023-01-19T10:18:01.503Z,0.52
2023-01-19T10:20:37.070Z,0.58
2023-01-19T10:23:18.831Z,0.61
2023-01-19T10:25:47.763Z,0.60
2023-01-19T10:28:24.294Z,0.62
2023-01-19T10:30:54.421Z,0.64
2023-01-19T10:33:21.142Z,0.72
2023-01-19T10:35:48.788Z,0.72
2023-01-19T10:38:22.232Z,0.77
2023-01-19T10:41:07.254Z,0.83
2023-01-19T10:43:33.940Z,0.81
2023-01-19T10:46:17.307Z,0.81
2023-01-19T10:48:44.764Z,0.87
2023-01-19T10:51:12.067Z,0.84
2023-01-19T10:53:38.803Z,0.87
2023-01-19T10:56:24.335Z,0.91
2023-01-19T10:58:51.639Z,1.10
2023-01-19T11:01:26.223Z,1.08
2023-01-19T11:03:55.394Z,1.10
2023-01-19T11:06:30.692Z,1.17
2023-01-19T11:09:21.248Z,1.11
2023-01-19T11:11:51.743Z,0.90
2023-01-19T11:14:24.623Z,0.89
2023-01-19T11:16:55.491Z,1.01
2023-01-19T11:19:31.276Z,1.00
2023-01-19T11:22:33.128Z,1.02
2023-01-19T11:25:03.256Z,1.02
2023-01-19T11:27:34.003Z,1.00
2023-01-19T11:30:19.818Z,1.13
2023-01-19T11:32:47.725Z,1.08
2023-01-19T11:35:37.929Z,1.10
2023-01-19T11:38:16.051Z,1.16
2023-01-19T11:40:53.188Z,1.21
2023-01-19T11:43:23.497Z,1.21
2023-01-19T11:45:50.324Z,1.36
2023-01-19T11:48:29.352Z,1.29
2023-01-19T11:51:00.803Z,1.41
2023-01-19T11:53:33.912Z,1.33
2023-01-19T11:56:14.604Z,1.30
2023-01-19T11:58:46.815Z,1.27
2023-01-19T12:01:24.464Z,1.25
2023-01-19T12:04:14.416Z,1.38
2023-01-19T12:06:47.813Z,1.39
2023-01-19T12:09:28.317Z,1.42
2023-01-19T12:12:27.174Z,1.37
2023-01-19T12:15:03.413Z,1.40
2023-01-19T12:17:48.774Z,1.42
2023-01-19T12:20:21.439Z,1.53
2023-01-19T12:23:11.887Z,1.52
2023-01-19T12:26:09.106Z,1.56
2023-01-19T12:28:40.389Z,1.66
2023-01-19T12:31:08.361Z,1.60
2023-01-19T12:33:39.399Z,1.75
2023-01-19T12:36:30.471Z,1.69
2023-01-19T12:39:09.212Z,1.74
2023-01-19T12:41:41.682Z,1.89
2023-01-19T12:44:11.721Z,1.79
2023-01-19T12:46:39.068Z,1.83
2023-01-19T12:49:22.753Z,1.96
2023-01-19T12:51:52.649Z,1.92
2023-01-19T12:54:32.456Z,1.86
2023-01-19T12:57:23.496Z,1.85
2023-01-19T13:00:01.643Z,1.69
2023-01-19T13:02:28.369Z,1.71
2023-01-19T13:05:12.814Z,1.70
2023-01-19T13:08:11.416Z,1.52
2023-01-19T13:10:59.470Z,1.60
2023-01-19T13:13:39.959Z,1.61
2023-01-19T13:16:18.626Z,1.61
2023-01-19T13:19:06.728Z,1.62
2023-01-19T13:21:39.797Z,1.66
2023-01-19T13:24:19.912Z,1.75
2023-01-19T13:26:49.780Z,1.70
2023-01-19T13:29:31.712Z,1.82
2023-01-19T13:32:07.028Z,1.82
2023-01-19T13:34:50.045Z,1.79
2023-01-19T13:37:39.784Z,1.78
2023-01-19T13:40:08.164Z,1.76
2023-01-19T13:42:41.702Z,1.77
2023-01-19T13:45:22.229Z,1.83
2023-01-19T13:47:51.265Z,1.80
2023-01-19T13:50:25.380Z,1.77
2023-01-19T13:52:54.030Z,1.84
2023-01-19T13:55:21.697Z,1.85
2023-01-19T13:57:51.453Z,1.94
2023-01-19T14:00:26.437Z,1.96
2023-01-19T14:02:54.870Z,1.95
2023-01-19T14:05:38.594Z,1.97
2023-01-19T14:08:08.059Z,1.94
2023-01-19T14:10:38.910Z,1.91
2023-01-19T14:13:34.137Z,1.79
2023-01-19T14:16:07.611Z,1.80
2023-01-19T14:18:36.343Z,1.70
2023-01-19T14:21:08.118Z,1.65
2023-01-19T14:24:06.823Z,1.59
2023-01-19T14:26:46.788Z,1.50
2023-01-19T14:29:19.704Z,1.47
2023-01-19T14:31:48.032Z,1.41
2023-01-19T14:34:50.290Z,1.37
2023-01-19T14:37:42.008Z,1.41
2023-01-19T14:40:10.748Z,1.34
2023-01-19T14:42:43.426Z,1.31
2023-01-19T14:45:20.899Z,1.28
2023-01-19T14:47:57.410Z,1.23
2023-01-19T14:51:01.374Z,1.22
2023-01-19T14:53:37.219Z,1.13
2023-01-19T14:56:06.213Z,1.18
2023-01-19T14:58:35.538Z,1.19
2023-01-19T15:01:03.086Z,1.19
2023-01-19T15:03:43.487Z,1.16
2023-01-19T15:06:20.508Z,1.14
2023-01-19T15:08:50.077Z,1.08
2023-01-19T15:11:26.095Z,1.16
2023-01-19T15:13:53.045Z,1.15
2023-01-19T15:16:20.577Z,1.07
2023-01-19T15:18:47.545Z,1.05
2023-01-19T15:21:20.483Z,1.07
2023-01-19T15:23:47.798Z,1.08
2023-01-19T15:26:20.853Z,0.98
2023-01-19T15:28:51.315Z,0.94
2023-01-19T15:31:22.431Z,0.96
2023-01-19T15:33:49.918Z,0.94
2023-01-19T15:36:22.174Z,0.94
2023-01-19T15:38:51.009Z,0.94
2023-01-19T15:41:31.817Z,0.94
2023-01-19T15:43:59.426Z,0.91
2023-01-19T15:46:26.312Z,0.90
2023-01-19T15:48:53.896Z,0.99
2023-01-19T15:51:28.000Z,0.98
2023-01-19T15:53:55.576Z,0.92
2023-01-19T15:56:26.788Z,0.88
2023-01-19T15:58:54.967Z,0.84
2023-01-19T16:01:31.109Z,0.77
2023-01-19T16:04:00.743Z,0.78
2023-01-19T16:06:28.370Z,0.76
2023-01-19T16:08:59.693Z,0.72
2023-01-19T16:11:31.821Z,0.66
2023-01-19T16:13:58.494Z,0.61
2023-01-19T16:16:27.864Z,0.60
2023-01-19T16:18:55.204Z,0.60
2023-01-19T16:21:22.331Z,0.58
2023-01-19T16:23:49.075Z,0.70
2023-01-19T16:26:34.862Z,0.71
2023-01-19T16:29:08.521Z,0.67
2023-01-19T16:31:39.703Z,0.72
2023-01-19T16:34:07.472Z,0.75
2023-01-19T16:36:37.969Z,0.76
2023-01-19T16:39:12.131Z,0.69
2023-01-19T16:41:39.534Z,0.70
2023-01-19T16:44:07.291Z,0.70
2023-01-19T16:46:37.978Z,0.68
2023-01-19T16:49:11.180Z,0.67
2023-01-19T16:51:37.964Z,0.61
2023-01-19T16:54:05.155Z,0.58
2023-01-19T16:56:32.080Z,0.54
2023-01-19T16:59:00.190Z,0.53
2023-01-19T17:01:28.877Z,0.53
2023-01-19T17:03:56.801Z,0.49
2023-01-19T17:06:24.489Z,0.48
2023-01-19T17:08:52.516Z,0.45
2023-01-19T17:11:25.575Z,0.45
2023-01-19T17:14:06.240Z,0.41
2023-01-19T17:16:34.728Z,0.40
2023-01-19T17:19:03.940Z,0.38
2023-01-19T17:21:30.746Z,0.38
2023-01-19T17:23:58.930Z,0.32
2023-01-19T17:26:31.224Z,0.22
2023-01-19T17:29:00.644Z,0.15
2023-01-19T17:31:30.152Z,0.12
2023-01-19T17:33:56.982Z,0.10
2023-01-19T17:36:25.553Z,0.10
2023-01-19T17:38:55.485Z,0.08
2023-01-19T17:41:26.355Z,0.08
2023-01-19T17:43:53.472Z,0.05
2023-01-19T17:46:23.997Z,0.03
2023-01-19T17:48:59.464Z,0.01
2023-01-19T17:51:27.156Z,-0.01
2023-01-19T17:53:54.331Z,-0.05
2023-01-19T17:56:27.359Z,-0.12
2023-01-19T17:58:54.596Z,-0.15
2023-01-19T18:01:25.149Z,-0.16
2023-01-19T18:03:53.040Z,-0.21
2023-01-19T18:06:20.480Z,-0.25
2023-01-19T18:08:48.564Z,-0.28
2023-01-19T18:11:18.346Z,-0.27
2023-01-19T18:13:48.254Z,-0.18
2023-01-19T18:16:20.670Z,-0.13
2023-01-19T18:18:49.631Z,-0.13
2023-01-19T18:21:17.557Z,-0.08
2023-01-19T18:23:45.600Z,-0.11
2023-01-19T18:26:16.530Z,-0.13
2023-01-19T18:28:43.653Z,-0.20
2023-01-19T18:31:15.448Z,-0.25
2023-01-19T18:33:42.739Z,-0.33
2023-01-19T18:36:10.219Z,-0.28
2023-01-19T18:38:38.311Z,-0.34
2023-01-19T18:41:14.155Z,-0.41
2023-01-19T18:43:41.048Z,-0.45
2023-01-19T18:46:44.703Z,-0.43
2023-01-19T18:49:14.249Z,-0.48
2023-01-19T18:51:41.841Z,-0.41
2023-01-19T18:54:09.131Z,-0.53
2023-01-19T18:56:36.274Z,-0.51
2023-01-19T18:59:03.078Z,-0.50
2023-01-19T19:01:35.109Z,-0.59
2023-01-19T19:04:02.665Z,-0.59
2023-01-19T19:06:29.586Z,-0.60
2023-01-19T19:08:59.310Z,-0.62
2023-01-19T19:11:27.596Z,-0.62
2023-01-19T19:14:00.522Z,-0.63
2023-01-19T19:16:28.808Z,-0.68
2023-01-19T19:18:55.909Z,-0.66
2023-01-19T19:21:25.256Z,-0.72
2023-01-19T19:23:55.099Z,-0.64
2023-01-19T19:26:22.843Z,-0.67
2023-01-19T19:28:49.724Z,-0.69
2023-01-19T19:31:20.624Z,-0.65
2023-01-19T19:33:48.949Z,-0.65
2023-01-19T19:36:15.702Z,-0.71
2023-01-19T19:38:44.376Z,-0.74
2023-01-19T19:41:19.419Z,-0.72
2023-01-19T19:43:46.284Z,-0.75
2023-01-19T19:46:15.935Z,-0.74
2023-01-19T19:48:42.726Z,-0.79
2023-01-19T19:51:18.995Z,-0.81
2023-01-19T19:53:48.394Z,-0.83
2023-01-19T19:56:19.884Z,-0.87
2023-01-19T19:58:48.164Z,-0.76
2023-01-19T20:01:24.023Z,-0.88
2023-01-19T20:03:52.092Z,-0.93
2023-01-19T20:06:22.369Z,-0.95
2023-01-19T20:08:50.549Z,-0.94
2023-01-19T20:11:24.043Z,-0.98
2023-01-19T20:13:50.913Z,-0.96
2023-01-19T20:16:21.040Z,-0.90
2023-01-19T20:18:54.141Z,-1.01
2023-01-19T20:21:27.704Z,-1.05
2023-01-19T20:23:57.147Z,-1.09
2023-01-19T20:26:28.630Z,-1.13
2023-01-19T20:29:00.696Z,-1.12
2023-01-19T20:31:31.264Z,-1.14
2023-01-19T20:34:01.081Z,-1.13
2023-01-19T20:36:28.902Z,-1.16
2023-01-19T20:38:56.477Z,-1.15
2023-01-19T20:41:24.538Z,-1.12
2023-01-19T20:43:51.972Z,-1.17
2023-01-19T20:46:19.790Z,-1.20
2023-01-19T20:48:50.807Z,-1.21
2023-01-19T20:51:18.780Z,-1.24
2023-01-19T20:53:45.944Z,-1.24
2023-01-19T20:56:15.056Z,-1.32
2023-01-19T20:58:42.990Z,-1.31
2023-01-19T21:01:20.452Z,-1.40
2023-01-19T21:03:48.739Z,-1.36
2023-01-19T21:06:16.732Z,-1.32
2023-01-19T21:08:44.059Z,-1.31
2023-01-19T21:11:11.504Z,-1.36
2023-01-19T21:13:38.351Z,-1.36
2023-01-19T21:16:06.176Z,-1.46
2023-01-19T21:18:33.311Z,-1.47
2023-01-19T21:21:00.159Z,-1.42
2023-01-19T21:23:28.035Z,-1.41
2023-01-19T21:26:00.286Z,-1.48
2023-01-19T21:28:28.510Z,-1.48
2023-01-19T21:30:57.038Z,-1.46
2023-01-19T21:33:24.494Z,-1.51
2023-01-19T21:35:57.733Z,-1.46
2023-01-19T21:38:27.425Z,-1.53
2023-01-19T21:40:55.713Z,-1.56
2023-01-19T21:43:22.802Z,-1.50
2023-01-19T21:45:49.818Z,-1.53
2023-01-19T21:48:17.413Z,-1.55
2023-01-19T21:50:44.870Z,-1.53
2023-01-19T21:53:11.917Z,-1.48
2023-01-19T21:55:45.640Z,-1.52
2023-01-19T21:58:12.435Z,-1.45
2023-01-19T22:00:39.258Z,-1.38
2023-01-19T22:03:06.091Z,-1.36
2023-01-19T22:05:37.185Z,-1.26
2023-01-19T22:08:06.260Z,-1.13
2023-01-19T22:10:38.690Z,-1.12
2023-01-19T22:13:06.729Z,-1.13
2023-01-19T22:15:33.754Z,-1.00
2023-01-19T22:18:00.574Z,-0.94
2023-01-19T22:20:27.325Z,-0.94
2023-01-19T22:22:53.971Z,-0.98
2023-01-19T22:25:24.689Z,-0.98
2023-01-19T22:27:51.386Z,-0.96
2023-01-19T22:30:18.566Z,-0.96
2023-01-19T22:32:45.300Z,-1.02
2023-01-19T22:35:12.298Z,-1.04
2023-01-19T22:37:39.212Z,-1.06
2023-01-19T22:40:06.704Z,-1.07
2023-01-19T22:42:33.482Z,-1.08
2023-01-19T22:45:00.197Z,-1.11
2023-01-19T22:47:26.980Z,-1.05
2023-01-19T22:49:53.678Z,-0.96
2023-01-19T22:52:20.456Z,-0.93
2023-01-19T22:54:47.202Z,-0.88
2023-01-19T22:57:13.985Z,-0.88
2023-01-19T22:59:40.799Z,-0.88
2023-01-19T23:02:09.330Z,-0.87
2023-01-19T23:04:36.391Z,-0.93
2023-01-19T23:07:03.132Z,-0.87
2023-01-19T23:09:29.970Z,-0.83
2023-01-19T23:11:56.869Z,-0.81
2023-01-19T23:14:23.616Z,-0.77
2023-01-19T23:16:50.437Z,-0.73
2023-01-19T23:19:18.070Z,-0.69
2023-01-19T23:21:51.895Z,-0.64
2023-01-19T23:24:18.917Z,-0.65
2023-01-19T23:26:45.579Z,-0.64
2023-01-19T23:29:14.955Z,-0.58
2023-01-19T23:31:48.789Z,-0.56
2023-01-19T23:34:16.388Z,-0.52
2023-01-19T23:36:44.004Z,-0.47
2023-01-19T23:39:19.966Z,-0.49
2023-01-19T23:41:47.995Z,-0.44
2023-01-19T23:44:15.343Z,-0.41
2023-01-19T23:46:42.110Z,-0.33
2023-01-19T23:49:08.793Z,-0.31
2023-01-19T23:51:35.788Z,-0.30
2023-01-19T23:54:02.874Z,-0.27
2023-01-19T23:56:36.163Z,-0.26
2023-01-19T23:59:07.048Z,-0.24
